チタ の空港の天気 - METARとTAF

チタ・カダラ空港 ( UIAA / HTA ) - ロシア チタ
飛行場実況気象(Metar)
観測時間06/25 22:00 YAKT (06/25 13:00 UTC)
風向・風速北北西 3m/s
視程10km以上
天気現象
なし
気温17℃
湿度83%
気圧1000hPa
METARUIAA 251300Z AUTO 34003MPS 9999 NCD 17/14 Q1000 RMK QFE692/0923
過去の天気等 Google飛行場航空写真 Wunderground天気予報

過去48時間のMETAR

飛行場予報(TAF)
発表時間: 6/25 20:00 YAKT (6/25 11:00 UTC)
予報対象時間: 25日21時 YAKT ~ 26日21時 YAKT
風向・風速北 3m/s 瞬間風速 8m/s
視程10km以上
全天の4割程度の積乱雲 雲底高度 1220m
25日21時 YAKT ~ 25日24時 YAKT に一時的に
天気現象弱い雷雨
26日9時 YAKT ~ 26日21時 YAKT に一時的に
天気現象弱いしゅう雪
全天の8割程度の積乱雲 雲底高度 430m
TAF UIAA 251100Z 2512/2612 01003G08MPS 9999 SCT040CB
TEMPO 2512/2515 -TSRA
TEMPO 2600/2612 -SHSN BKN014CB